sensor_id;sensor_type;location;lat;lon;timestamp;pressure;altitude;pressure_sealevel;temperature;humidity
63285;BME280;49409;55.708;37.522;2023-02-12T00:01:34;97910.53;;;5.21;55.00
63285;BME280;49409;55.708;37.522;2023-02-12T00:03:59;97914.03;;;4.97;56.23
63285;BME280;49409;55.708;37.522;2023-02-12T00:06:25;97928.59;;;4.87;56.06
63285;BME280;49409;55.708;37.522;2023-02-12T00:08:51;97939.16;;;4.85;55.94
63285;BME280;49409;55.708;37.522;2023-02-12T00:11:17;97944.78;;;4.47;56.98
63285;BME280;49409;55.708;37.522;2023-02-12T00:13:43;97949.59;;;4.36;57.69
63285;BME280;49409;55.708;37.522;2023-02-12T00:16:09;97943.94;;;4.23;58.02
63285;BME280;49409;55.708;37.522;2023-02-12T00:18:35;97957.28;;;4.14;59.74
63285;BME280;49409;55.708;37.522;2023-02-12T00:21:01;97958.53;;;4.06;60.24
63285;BME280;49409;55.708;37.522;2023-02-12T00:23:26;97972.91;;;4.06;58.89
63285;BME280;49409;55.708;37.522;2023-02-12T00:25:52;97973.13;;;4.23;59.30
63285;BME280;49409;55.708;37.522;2023-02-12T00:28:17;97990.22;;;3.89;59.75
63285;BME280;49409;55.708;37.522;2023-02-12T00:30:43;97991.03;;;3.86;60.91
63285;BME280;49409;55.708;37.522;2023-02-12T00:33:11;97992.63;;;3.83;59.02
63285;BME280;49409;55.708;37.522;2023-02-12T00:35:36;98013.81;;;3.61;60.38
63285;BME280;49409;55.708;37.522;2023-02-12T00:38:01;98014.72;;;3.47;59.51
63285;BME280;49409;55.708;37.522;2023-02-12T00:40:27;98024.09;;;3.43;59.50
63285;BME280;49409;55.708;37.522;2023-02-12T00:42:53;98025.88;;;3.15;60.61
63285;BME280;49409;55.708;37.522;2023-02-12T00:45:19;98032.19;;;3.01;61.97
63285;BME280;49409;55.708;37.522;2023-02-12T00:47:44;98054.69;;;3.02;62.12
63285;BME280;49409;55.708;37.522;2023-02-12T00:50:10;98055.44;;;3.06;60.71
63285;BME280;49409;55.708;37.522;2023-02-12T00:52:35;98058.63;;;2.93;60.67
63285;BME280;49409;55.708;37.522;2023-02-12T00:55:01;98074.09;;;3.04;60.38
63285;BME280;49409;55.708;37.522;2023-02-12T00:57:26;98070.25;;;2.97;59.71
63285;BME280;49409;55.708;37.522;2023-02-12T00:59:51;98079.81;;;2.43;62.29
63285;BME280;49409;55.708;37.522;2023-02-12T01:02:17;98082.06;;;2.66;60.23
63285;BME280;49409;55.708;37.522;2023-02-12T01:04:42;98090.66;;;2.50;61.31
63285;BME280;49409;55.708;37.522;2023-02-12T01:07:08;98100.75;;;2.46;62.49
63285;BME280;49409;55.708;37.522;2023-02-12T01:09:33;98112.31;;;2.68;61.38
63285;BME280;49409;55.708;37.522;2023-02-12T01:11:59;98115.47;;;2.55;61.28
63285;BME280;49409;55.708;37.522;2023-02-12T01:14:24;98114.66;;;2.66;60.30
63285;BME280;49409;55.708;37.522;2023-02-12T01:16:49;98126.31;;;2.55;61.16
63285;BME280;49409;55.708;37.522;2023-02-12T01:19:15;98141.09;;;2.40;61.67
63285;BME280;49409;55.708;37.522;2023-02-12T01:21:40;98147.28;;;2.48;60.38
63285;BME280;49409;55.708;37.522;2023-02-12T01:24:05;98161.25;;;2.53;59.87
63285;BME280;49409;55.708;37.522;2023-02-12T01:26:31;98160.16;;;2.18;61.72
63285;BME280;49409;55.708;37.522;2023-02-12T01:28:57;98172.53;;;2.41;60.60
63285;BME280;49409;55.708;37.522;2023-02-12T01:31:26;98176.44;;;2.22;61.54
63285;BME280;49409;55.708;37.522;2023-02-12T01:33:52;98189.97;;;2.47;59.61
63285;BME280;49409;55.708;37.522;2023-02-12T01:36:18;98189.25;;;2.04;61.48
63285;BME280;49409;55.708;37.522;2023-02-12T01:38:43;98207.06;;;2.01;61.67
63285;BME280;49409;55.708;37.522;2023-02-12T01:41:18;98202.41;;;1.84;63.52
63285;BME280;49409;55.708;37.522;2023-02-12T01:43:43;98218.31;;;2.07;61.10
63285;BME280;49409;55.708;37.522;2023-02-12T01:46:12;98217.53;;;2.13;60.91
63285;BME280;49409;55.708;37.522;2023-02-12T01:48:39;98225.69;;;2.10;61.50
63285;BME280;49409;55.708;37.522;2023-02-12T01:51:06;98224.53;;;2.04;61.97
63285;BME280;49409;55.708;37.522;2023-02-12T01:53:37;98233.44;;;2.11;61.14
63285;BME280;49409;55.708;37.522;2023-02-12T01:56:04;98238.47;;;2.16;60.45
63285;BME280;49409;55.708;37.522;2023-02-12T01:58:30;98262.09;;;1.80;61.74
63285;BME280;49409;55.708;37.522;2023-02-12T02:00:59;98252.78;;;1.88;61.70
63285;BME280;49409;55.708;37.522;2023-02-12T02:03:25;98265.19;;;1.89;61.91
63285;BME280;49409;55.708;37.522;2023-02-12T02:05:55;98265.19;;;1.96;61.20
63285;BME280;49409;55.708;37.522;2023-02-12T02:08:22;98269.06;;;1.95;61.91
63285;BME280;49409;55.708;37.522;2023-02-12T02:10:48;98296.97;;;1.85;62.27
63285;BME280;49409;55.708;37.522;2023-02-12T02:13:13;98281.47;;;2.07;61.24
63285;BME280;49409;55.708;37.522;2023-02-12T02:15:58;98281.50;;;2.14;60.88
63285;BME280;49409;55.708;37.522;2023-02-12T02:18:37;98303.56;;;1.88;61.52
63285;BME280;49409;55.708;37.522;2023-02-12T02:21:17;98329.44;;;1.60;61.35
63285;BME280;49409;55.708;37.522;2023-02-12T02:23:55;98305.06;;;1.82;61.96
63285;BME280;49409;55.708;37.522;2023-02-12T02:26:41;98344.97;;;1.77;61.02
63285;BME280;49409;55.708;37.522;2023-02-12T02:36:55;98358.00;;;1.39;62.83
63285;BME280;49409;55.708;37.522;2023-02-12T02:39:34;98358.16;;;1.75;60.96
63285;BME280;49409;55.708;37.522;2023-02-12T02:42:10;98363.53;;;1.61;61.80
63285;BME280;49409;55.708;37.522;2023-02-12T02:44:43;98377.47;;;1.63;61.24
63285;BME280;49409;55.708;37.522;2023-02-12T02:47:11;98370.59;;;1.87;60.76
63285;BME280;49409;55.708;37.522;2023-02-12T02:49:39;98382.97;;;1.85;59.82
63285;BME280;49409;55.708;37.522;2023-02-12T02:52:07;98398.44;;;1.73;60.34
63285;BME280;49409;55.708;37.522;2023-02-12T02:54:38;98398.88;;;1.86;60.72
63285;BME280;49409;55.708;37.522;2023-02-12T02:57:13;98409.69;;;1.79;61.02
63285;BME280;49409;55.708;37.522;2023-02-12T02:59:41;98423.31;;;1.90;60.14
63285;BME280;49409;55.708;37.522;2023-02-12T03:04:41;98412.84;;;1.92;59.99
63285;BME280;49409;55.708;37.522;2023-02-12T03:07:21;98434.19;;;1.97;59.50
63285;BME280;49409;55.708;37.522;2023-02-12T03:09:51;98436.97;;;2.18;58.44
63285;BME280;49409;55.708;37.522;2023-02-12T03:12:24;98442.75;;;2.17;58.68
63285;BME280;49409;55.708;37.522;2023-02-12T03:14:53;98443.53;;;2.10;58.57
63285;BME280;49409;55.708;37.522;2023-02-12T03:17:20;98454.34;;;1.96;59.48
63285;BME280;49409;55.708;37.522;2023-02-12T03:19:53;98465.22;;;2.00;58.93
63285;BME280;49409;55.708;37.522;2023-02-12T03:22:22;98475.25;;;1.92;59.20
63285;BME280;49409;55.708;37.522;2023-02-12T03:24:53;98479.84;;;1.84;59.29
63285;BME280;49409;55.708;37.522;2023-02-12T03:27:27;98498.03;;;1.76;60.36
63285;BME280;49409;55.708;37.522;2023-02-12T03:29:53;98484.50;;;1.80;59.58
63285;BME280;49409;55.708;37.522;2023-02-12T03:35:08;98510.88;;;1.87;58.78
63285;BME280;49409;55.708;37.522;2023-02-12T03:37:35;98514.84;;;2.04;58.83
63285;BME280;49409;55.708;37.522;2023-02-12T03:40:19;98527.59;;;2.03;58.95
63285;BME280;49409;55.708;37.522;2023-02-12T03:48:12;98535.66;;;1.85;58.70
63285;BME280;49409;55.708;37.522;2023-02-12T03:50:48;98540.38;;;1.99;57.26
63285;BME280;49409;55.708;37.522;2023-02-12T03:53:15;98549.19;;;1.82;58.83
63285;BME280;49409;55.708;37.522;2023-02-12T03:55:41;98560.78;;;1.75;58.48
63285;BME280;49409;55.708;37.522;2023-02-12T03:58:10;98561.91;;;1.70;59.01
63285;BME280;49409;55.708;37.522;2023-02-12T04:00:37;98567.88;;;1.42;59.06
63285;BME280;49409;55.708;37.522;2023-02-12T04:03:03;98556.44;;;1.63;58.94
63285;BME280;49409;55.708;37.522;2023-02-12T04:05:28;98559.88;;;1.56;57.99
63285;BME280;49409;55.708;37.522;2023-02-12T04:07:54;98622.44;;;0.96;59.60
63285;BME280;49409;55.708;37.522;2023-02-12T04:10:45;98576.31;;;1.30;59.45
63285;BME280;49409;55.708;37.522;2023-02-12T04:18:27;98598.47;;;1.39;58.60
63285;BME280;49409;55.708;37.522;2023-02-12T04:21:19;98628.22;;;1.32;57.97
63285;BME280;49409;55.708;37.522;2023-02-12T04:23:46;98631.09;;;1.09;59.18
63285;BME280;49409;55.708;37.522;2023-02-12T04:28:56;98628.94;;;1.25;58.28
63285;BME280;49409;55.708;37.522;2023-02-12T04:31:32;98636.59;;;1.19;60.13
63285;BME280;49409;55.708;37.522;2023-02-12T04:34:18;98661.41;;;1.22;57.41
63285;BME280;49409;55.708;37.522;2023-02-12T04:36:53;98646.72;;;1.26;58.66
63285;BME280;49409;55.708;37.522;2023-02-12T04:39:22;98670.25;;;1.15;59.16
63285;BME280;49409;55.708;37.522;2023-02-12T04:41:49;98665.56;;;1.12;57.98
63285;BME280;49409;55.708;37.522;2023-02-12T04:44:20;98692.34;;;1.17;57.76
63285;BME280;49409;55.708;37.522;2023-02-12T04:46:46;98671.72;;;1.09;59.20
63285;BME280;49409;55.708;37.522;2023-02-12T04:49:13;98683.94;;;1.29;57.14
63285;BME280;49409;55.708;37.522;2023-02-12T04:51:38;98692.91;;;0.99;58.32
63285;BME280;49409;55.708;37.522;2023-02-12T04:54:03;98686.56;;;0.88;58.33
63285;BME280;49409;55.708;37.522;2023-02-12T04:56:29;98700.53;;;1.24;56.62
63285;BME280;49409;55.708;37.522;2023-02-12T04:58:54;98708.81;;;1.05;56.82
63285;BME280;49409;55.708;37.522;2023-02-12T05:01:21;98712.19;;;1.28;55.74
63285;BME280;49409;55.708;37.522;2023-02-12T05:03:47;98731.09;;;1.21;55.88
63285;BME280;49409;55.708;37.522;2023-02-12T05:06:12;98722.56;;;1.19;56.56
63285;BME280;49409;55.708;37.522;2023-02-12T05:08:37;98748.78;;;0.81;57.04
63285;BME280;49409;55.708;37.522;2023-02-12T05:11:06;98725.81;;;1.02;57.02
63285;BME280;49409;55.708;37.522;2023-02-12T05:13:32;98745.47;;;1.25;57.12
63285;BME280;49409;55.708;37.522;2023-02-12T05:15:58;98737.16;;;1.11;56.16
63285;BME280;49409;55.708;37.522;2023-02-12T05:18:23;98763.91;;;1.16;55.58
63285;BME280;49409;55.708;37.522;2023-02-12T05:20:56;98751.75;;;1.03;57.58
63285;BME280;49409;55.708;37.522;2023-02-12T05:23:22;98756.44;;;1.06;57.14
63285;BME280;49409;55.708;37.522;2023-02-12T05:25:47;98769.75;;;1.48;55.09
63285;BME280;49409;55.708;37.522;2023-02-12T05:28:13;98784.72;;;1.38;55.61
63285;BME280;49409;55.708;37.522;2023-02-12T05:30:38;98780.75;;;1.29;55.78
63285;BME280;49409;55.708;37.522;2023-02-12T05:33:03;98788.31;;;1.16;55.68
63285;BME280;49409;55.708;37.522;2023-02-12T05:35:28;98786.84;;;1.22;54.76
63285;BME280;49409;55.708;37.522;2023-02-12T05:37:54;98789.75;;;1.36;55.58
63285;BME280;49409;55.708;37.522;2023-02-12T05:40:19;98803.91;;;1.26;56.98
63285;BME280;49409;55.708;37.522;2023-02-12T05:42:44;98821.19;;;1.14;55.84
63285;BME280;49409;55.708;37.522;2023-02-12T05:45:10;98817.47;;;1.26;55.84
63285;BME280;49409;55.708;37.522;2023-02-12T05:47:35;98811.28;;;0.95;55.88
63285;BME280;49409;55.708;37.522;2023-02-12T05:50:00;98817.50;;;0.99;56.04
63285;BME280;49409;55.708;37.522;2023-02-12T05:52:26;98811.00;;;1.04;55.91
63285;BME280;49409;55.708;37.522;2023-02-12T05:54:51;98817.47;;;0.96;56.65
63285;BME280;49409;55.708;37.522;2023-02-12T05:57:16;98829.91;;;1.01;55.81
63285;BME280;49409;55.708;37.522;2023-02-12T05:59:42;98836.19;;;1.08;55.00
63285;BME280;49409;55.708;37.522;2023-02-12T06:02:07;98841.06;;;0.95;56.99
63285;BME280;49409;55.708;37.522;2023-02-12T06:04:32;98839.13;;;0.96;56.21
63285;BME280;49409;55.708;37.522;2023-02-12T06:06:58;98856.63;;;1.02;57.24
63285;BME280;49409;55.708;37.522;2023-02-12T06:09:24;98848.16;;;1.04;55.86
63285;BME280;49409;55.708;37.522;2023-02-12T06:11:49;98861.88;;;1.18;56.14
63285;BME280;49409;55.708;37.522;2023-02-12T06:14:16;98861.41;;;1.12;55.05
63285;BME280;49409;55.708;37.522;2023-02-12T06:16:45;98887.88;;;0.96;55.96
63285;BME280;49409;55.708;37.522;2023-02-12T06:19:11;98884.19;;;0.81;56.03
63285;BME280;49409;55.708;37.522;2023-02-12T06:21:36;98892.22;;;1.01;55.37
63285;BME280;49409;55.708;37.522;2023-02-12T06:24:01;98890.25;;;0.97;54.41
63285;BME280;49409;55.708;37.522;2023-02-12T06:26:27;98900.34;;;1.01;55.08
63285;BME280;49409;55.708;37.522;2023-02-12T06:28:52;98928.38;;;1.12;54.02
63285;BME280;49409;55.708;37.522;2023-02-12T06:33:43;98928.78;;;0.87;54.17
63285;BME280;49409;55.708;37.522;2023-02-12T06:36:08;98934.63;;;1.16;53.40
63285;BME280;49409;55.708;37.522;2023-02-12T06:38:33;98943.81;;;1.08;53.51
63285;BME280;49409;55.708;37.522;2023-02-12T06:41:02;98934.47;;;1.05;52.30
63285;BME280;49409;55.708;37.522;2023-02-12T06:43:28;98962.34;;;1.06;52.76
63285;BME280;49409;55.708;37.522;2023-02-12T06:45:53;98955.97;;;1.17;52.91
63285;BME280;49409;55.708;37.522;2023-02-12T06:48:18;98974.03;;;0.87;53.07
63285;BME280;49409;55.708;37.522;2023-02-12T06:50:44;98970.66;;;0.93;54.20
63285;BME280;49409;55.708;37.522;2023-02-12T06:53:09;98978.59;;;1.06;53.95
63285;BME280;49409;55.708;37.522;2023-02-12T06:55:34;98987.88;;;1.05;52.55
63285;BME280;49409;55.708;37.522;2023-02-12T06:58:00;98982.81;;;0.80;53.95
63285;BME280;49409;55.708;37.522;2023-02-12T07:00:25;98986.94;;;0.93;53.00
63285;BME280;49409;55.708;37.522;2023-02-12T07:02:51;99004.31;;;0.92;52.05
63285;BME280;49409;55.708;37.522;2023-02-12T07:05:16;98991.50;;;0.89;53.32
63285;BME280;49409;55.708;37.522;2023-02-12T07:07:42;98997.09;;;1.00;52.17
63285;BME280;49409;55.708;37.522;2023-02-12T07:10:07;99007.91;;;0.77;53.44
63285;BME280;49409;55.708;37.522;2023-02-12T07:12:33;99004.50;;;0.80;52.69
63285;BME280;49409;55.708;37.522;2023-02-12T07:14:58;99011.06;;;0.79;52.24
63285;BME280;49409;55.708;37.522;2023-02-12T07:17:24;99015.81;;;1.09;51.76
63285;BME280;49409;55.708;37.522;2023-02-12T07:19:49;99018.81;;;1.04;50.64
63285;BME280;49409;55.708;37.522;2023-02-12T07:22:15;99035.53;;;0.86;51.61
63285;BME280;49409;55.708;37.522;2023-02-12T07:24:40;99018.28;;;0.94;50.67
63285;BME280;49409;55.708;37.522;2023-02-12T07:27:05;99031.94;;;1.02;50.97
63285;BME280;49409;55.708;37.522;2023-02-12T07:29:31;99026.88;;;1.00;51.13
63285;BME280;49409;55.708;37.522;2023-02-12T07:31:56;99037.75;;;0.81;52.31
63285;BME280;49409;55.708;37.522;2023-02-12T07:34:21;99060.69;;;0.64;52.22
63285;BME280;49409;55.708;37.522;2023-02-12T07:36:47;99059.69;;;0.52;52.64
63285;BME280;49409;55.708;37.522;2023-02-12T07:39:12;99079.47;;;0.76;51.42
63285;BME280;49409;55.708;37.522;2023-02-12T07:41:37;99058.84;;;0.91;50.73
63285;BME280;49409;55.708;37.522;2023-02-12T07:44:04;99060.53;;;0.56;50.79
63285;BME280;49409;55.708;37.522;2023-02-12T07:46:41;99058.31;;;0.62;50.39
63285;BME280;49409;55.708;37.522;2023-02-12T07:49:09;99069.31;;;0.69;49.68
63285;BME280;49409;55.708;37.522;2023-02-12T07:51:36;99064.78;;;0.77;49.78
63285;BME280;49409;55.708;37.522;2023-02-12T07:54:02;99092.00;;;0.45;50.14
63285;BME280;49409;55.708;37.522;2023-02-12T07:56:28;99071.97;;;0.89;49.69
63285;BME280;49409;55.708;37.522;2023-02-12T07:58:56;99092.00;;;0.65;49.91
63285;BME280;49409;55.708;37.522;2023-02-12T08:01:26;99095.81;;;0.60;50.26
63285;BME280;49409;55.708;37.522;2023-02-12T08:03:52;99101.19;;;0.99;48.82
63285;BME280;49409;55.708;37.522;2023-02-12T08:06:23;99094.34;;;0.86;49.15
63285;BME280;49409;55.708;37.522;2023-02-12T08:08:52;99119.66;;;0.74;48.85
63285;BME280;49409;55.708;37.522;2023-02-12T08:11:18;99110.25;;;0.68;48.74
63285;BME280;49409;55.708;37.522;2023-02-12T08:13:43;99111.69;;;0.62;48.90
63285;BME280;49409;55.708;37.522;2023-02-12T08:16:10;99128.78;;;0.66;49.24
63285;BME280;49409;55.708;37.522;2023-02-12T08:18:36;99125.94;;;0.78;48.99
63285;BME280;49409;55.708;37.522;2023-02-12T08:21:05;99147.88;;;0.73;47.99
63285;BME280;49409;55.708;37.522;2023-02-12T08:23:31;99139.75;;;0.73;49.29
63285;BME280;49409;55.708;37.522;2023-02-12T08:28:35;99143.31;;;0.96;47.25
63285;BME280;49409;55.708;37.522;2023-02-12T08:31:02;99148.53;;;1.05;47.41
63285;BME280;49409;55.708;37.522;2023-02-12T08:33:27;99158.59;;;0.85;47.26
63285;BME280;49409;55.708;37.522;2023-02-12T08:36:00;99150.47;;;0.85;46.88
63285;BME280;49409;55.708;37.522;2023-02-12T08:38:25;99160.63;;;0.72;46.50
63285;BME280;49409;55.708;37.522;2023-02-12T08:40:50;99154.59;;;0.79;47.22
63285;BME280;49409;55.708;37.522;2023-02-12T08:43:16;99173.53;;;0.98;45.86
63285;BME280;49409;55.708;37.522;2023-02-12T08:45:41;99177.25;;;0.90;45.89
63285;BME280;49409;55.708;37.522;2023-02-12T08:48:07;99197.78;;;0.91;46.00
63285;BME280;49409;55.708;37.522;2023-02-12T08:50:32;99202.34;;;0.68;46.54
63285;BME280;49409;55.708;37.522;2023-02-12T08:52:58;99172.41;;;0.80;46.51
63285;BME280;49409;55.708;37.522;2023-02-12T08:55:23;99178.47;;;0.73;46.95
63285;BME280;49409;55.708;37.522;2023-02-12T08:57:48;99183.19;;;0.41;47.93
63285;BME280;49409;55.708;37.522;2023-02-12T09:00:14;99181.53;;;0.72;47.83
63285;BME280;49409;55.708;37.522;2023-02-12T09:02:39;99189.75;;;0.95;46.02
63285;BME280;49409;55.708;37.522;2023-02-12T09:05:04;99194.78;;;0.96;46.07
63285;BME280;49409;55.708;37.522;2023-02-12T09:07:30;99188.84;;;1.10;45.18
63285;BME280;49409;55.708;37.522;2023-02-12T09:09:55;99213.03;;;0.99;45.17
63285;BME280;49409;55.708;37.522;2023-02-12T09:12:20;99215.66;;;0.76;44.13
63285;BME280;49409;55.708;37.522;2023-02-12T09:14:46;99228.06;;;0.77;44.65
63285;BME280;49409;55.708;37.522;2023-02-12T09:17:11;99224.28;;;0.82;45.17
63285;BME280;49409;55.708;37.522;2023-02-12T09:19:36;99224.00;;;0.68;43.97
63285;BME280;49409;55.708;37.522;2023-02-12T09:22:02;99223.09;;;0.99;44.60
63285;BME280;49409;55.708;37.522;2023-02-12T09:24:27;99225.00;;;1.18;44.16
63285;BME280;49409;55.708;37.522;2023-02-12T09:26:53;99230.00;;;1.35;43.89
63285;BME280;49409;55.708;37.522;2023-02-12T09:29:18;99226.16;;;0.97;43.79
63285;BME280;49409;55.708;37.522;2023-02-12T09:31:43;99232.00;;;0.80;44.54
63285;BME280;49409;55.708;37.522;2023-02-12T09:34:09;99250.97;;;0.99;45.12
63285;BME280;49409;55.708;37.522;2023-02-12T09:36:34;99240.28;;;1.07;44.10
63285;BME280;49409;55.708;37.522;2023-02-12T09:39:00;99245.09;;;0.78;48.17
63285;BME280;49409;55.708;37.522;2023-02-12T09:41:30;99240.72;;;0.54;49.82
63285;BME280;49409;55.708;37.522;2023-02-12T09:47:04;99244.28;;;0.93;46.74
63285;BME280;49409;55.708;37.522;2023-02-12T09:52:33;99238.88;;;1.13;46.77
63285;BME280;49409;55.708;37.522;2023-02-12T09:54:59;99237.13;;;1.44;45.48
63285;BME280;49409;55.708;37.522;2023-02-12T09:57:32;99243.22;;;1.37;44.79
63285;BME280;49409;55.708;37.522;2023-02-12T10:00:44;99249.03;;;1.58;44.65
63285;BME280;49409;55.708;37.522;2023-02-12T10:02:44;99269.22;;;1.61;43.59
63285;BME280;49409;55.708;37.522;2023-02-12T10:05:21;99252.44;;;1.55;43.27
63285;BME280;49409;55.708;37.522;2023-02-12T10:10:18;99273.72;;;1.53;44.41
63285;BME280;49409;55.708;37.522;2023-02-12T10:12:56;99263.19;;;1.48;43.22
63285;BME280;49409;55.708;37.522;2023-02-12T10:25:32;99279.38;;;1.87;42.39
63285;BME280;49409;55.708;37.522;2023-02-12T10:28:01;99259.91;;;2.05;42.93
63285;BME280;49409;55.708;37.522;2023-02-12T10:31:15;99283.00;;;1.95;43.16
63285;BME280;49409;55.708;37.522;2023-02-12T10:33:43;99284.47;;;2.12;42.65
63285;BME280;49409;55.708;37.522;2023-02-12T10:36:17;99294.38;;;1.81;43.18
63285;BME280;49409;55.708;37.522;2023-02-12T10:38:47;99296.16;;;1.93;42.68
63285;BME280;49409;55.708;37.522;2023-02-12T10:41:14;99295.75;;;1.71;42.43
63285;BME280;49409;55.708;37.522;2023-02-12T10:43:40;99309.13;;;1.41;42.26
63285;BME280;49409;55.708;37.522;2023-02-12T10:46:08;99293.34;;;1.66;43.26
63285;BME280;49409;55.708;37.522;2023-02-12T10:48:37;99299.63;;;1.93;43.46
63285;BME280;49409;55.708;37.522;2023-02-12T10:53:33;99302.50;;;2.01;42.15
63285;BME280;49409;55.708;37.522;2023-02-12T10:56:32;99312.44;;;1.93;42.47
63285;BME280;49409;55.708;37.522;2023-02-12T11:01:16;99324.19;;;1.58;44.05
63285;BME280;49409;55.708;37.522;2023-02-12T11:03:44;99331.31;;;1.66;43.34
63285;BME280;49409;55.708;37.522;2023-02-12T11:06:17;99332.59;;;1.53;43.17
63285;BME280;49409;55.708;37.522;2023-02-12T11:08:43;99344.31;;;1.76;43.60
63285;BME280;49409;55.708;37.522;2023-02-12T11:13:38;99347.88;;;1.81;43.04
63285;BME280;49409;55.708;37.522;2023-02-12T11:16:04;99346.44;;;1.87;42.76
63285;BME280;49409;55.708;37.522;2023-02-12T11:18:30;99343.69;;;2.06;43.44
63285;BME280;49409;55.708;37.522;2023-02-12T11:20:59;99367.50;;;1.54;43.52
63285;BME280;49409;55.708;37.522;2023-02-12T11:23:32;99350.81;;;1.72;43.64
63285;BME280;49409;55.708;37.522;2023-02-12T11:25:59;99360.56;;;1.96;43.08
63285;BME280;49409;55.708;37.522;2023-02-12T11:28:25;99358.69;;;2.00;43.07
63285;BME280;49409;55.708;37.522;2023-02-12T11:30:52;99381.69;;;2.06;43.18
63285;BME280;49409;55.708;37.522;2023-02-12T11:36:14;99374.56;;;2.21;42.87
63285;BME280;49409;55.708;37.522;2023-02-12T11:38:49;99369.63;;;2.27;43.11
63285;BME280;49409;55.708;37.522;2023-02-12T11:44:01;99378.72;;;2.57;42.99
63285;BME280;49409;55.708;37.522;2023-02-12T11:46:32;99381.56;;;2.42;42.62
63285;BME280;49409;55.708;37.522;2023-02-12T11:48:58;99388.47;;;2.62;43.42
63285;BME280;49409;55.708;37.522;2023-02-12T11:51:25;99384.16;;;2.57;43.33
63285;BME280;49409;55.708;37.522;2023-02-12T11:53:53;99393.31;;;2.49;43.05
63285;BME280;49409;55.708;37.522;2023-02-12T11:56:19;99399.41;;;2.20;43.44
63285;BME280;49409;55.708;37.522;2023-02-12T11:58:45;99406.16;;;2.52;43.24
63285;BME280;49409;55.708;37.522;2023-02-12T12:06:24;99410.94;;;2.36;42.93
63285;BME280;49409;55.708;37.522;2023-02-12T12:11:27;99439.31;;;2.19;42.81
63285;BME280;49409;55.708;37.522;2023-02-12T12:13:59;99440.16;;;2.23;43.48
63285;BME280;49409;55.708;37.522;2023-02-12T12:16:41;99445.38;;;1.73;43.99
63285;BME280;49409;55.708;37.522;2023-02-12T12:24:52;99459.31;;;1.72;44.03
63285;BME280;49409;55.708;37.522;2023-02-12T12:27:26;99482.41;;;1.66;43.77
63285;BME280;49409;55.708;37.522;2023-02-12T12:33:00;99481.91;;;1.60;44.44
63285;BME280;49409;55.708;37.522;2023-02-12T12:35:31;99491.38;;;1.86;43.50
63285;BME280;49409;55.708;37.522;2023-02-12T12:43:41;99504.56;;;1.87;43.39
63285;BME280;49409;55.708;37.522;2023-02-12T12:54:10;99523.03;;;1.62;43.88
63285;BME280;49409;55.708;37.522;2023-02-12T13:12:27;99556.00;;;1.01;44.33
63285;BME280;49409;55.708;37.522;2023-02-12T13:17:35;99558.59;;;0.81;44.94
63285;BME280;49409;55.708;37.522;2023-02-12T13:23:34;99564.19;;;0.88;44.90
63285;BME280;49409;55.708;37.522;2023-02-12T13:27:50;99559.22;;;1.06;44.49
63285;BME280;49409;55.708;37.522;2023-02-12T13:30:18;99561.06;;;1.02;44.66
63285;BME280;49409;55.708;37.522;2023-02-12T13:33:06;99562.91;;;0.98;44.82
63285;BME280;49409;55.708;37.522;2023-02-12T13:35:30;99571.31;;;1.09;44.87
63285;BME280;49409;55.708;37.522;2023-02-12T13:37:57;99581.31;;;0.92;45.18
63285;BME280;49409;55.708;37.522;2023-02-12T13:40:24;99568.25;;;1.10;44.74
63285;BME280;49409;55.708;37.522;2023-02-12T13:45:20;99583.88;;;0.85;45.17
63285;BME280;49409;55.708;37.522;2023-02-12T13:50:54;99584.84;;;0.93;45.09
63285;BME280;49409;55.708;37.522;2023-02-12T13:53:36;99593.53;;;0.86;45.18
63285;BME280;49409;55.708;37.522;2023-02-12T13:56:03;99593.84;;;0.69;44.96
63285;BME280;49409;55.708;37.522;2023-02-12T14:03:25;99594.25;;;0.83;45.07
63285;BME280;49409;55.708;37.522;2023-02-12T14:06:07;99593.41;;;0.95;44.87
63285;BME280;49409;55.708;37.522;2023-02-12T14:08:36;99589.13;;;0.66;45.17
63285;BME280;49409;55.708;37.522;2023-02-12T14:11:04;99597.00;;;0.71;45.31
63285;BME280;49409;55.708;37.522;2023-02-12T14:13:31;99606.31;;;0.86;44.96
63285;BME280;49409;55.708;37.522;2023-02-12T14:15:58;99602.84;;;0.73;44.94
63285;BME280;49409;55.708;37.522;2023-02-12T14:18:42;99613.63;;;0.57;45.60
63285;BME280;49409;55.708;37.522;2023-02-12T14:23:36;99631.75;;;0.69;45.59
63285;BME280;49409;55.708;37.522;2023-02-12T14:26:06;99625.28;;;0.57;45.62
63285;BME280;49409;55.708;37.522;2023-02-12T14:28:40;99617.09;;;0.70;45.17
63285;BME280;49409;55.708;37.522;2023-02-12T14:31:20;99633.41;;;0.57;45.70
63285;BME280;49409;55.708;37.522;2023-02-12T14:33:51;99641.78;;;0.40;46.65
63285;BME280;49409;55.708;37.522;2023-02-12T14:37:08;99648.97;;;0.48;46.33
63285;BME280;49409;55.708;37.522;2023-02-12T14:41:49;99652.53;;;0.65;45.90
63285;BME280;49409;55.708;37.522;2023-02-12T14:46:48;99652.03;;;0.75;45.85
63285;BME280;49409;55.708;37.522;2023-02-12T14:52:01;99663.09;;;0.82;45.88
63285;BME280;49409;55.708;37.522;2023-02-12T14:56:59;99679.72;;;0.68;46.06
63285;BME280;49409;55.708;37.522;2023-02-12T14:59:26;99675.53;;;0.71;46.09
63285;BME280;49409;55.708;37.522;2023-02-12T15:01:53;99679.13;;;0.75;45.79
63285;BME280;49409;55.708;37.522;2023-02-12T15:04:32;99684.53;;;0.75;45.49
63285;BME280;49409;55.708;37.522;2023-02-12T15:07:09;99688.19;;;0.67;46.26
63285;BME280;49409;55.708;37.522;2023-02-12T15:12:14;99707.84;;;0.51;46.86
63285;BME280;49409;55.708;37.522;2023-02-12T15:14:43;99701.91;;;0.46;46.86
63285;BME280;49409;55.708;37.522;2023-02-12T15:17:10;99711.56;;;0.47;46.78
63285;BME280;49409;55.708;37.522;2023-02-12T15:19:41;99704.25;;;0.35;46.99
63285;BME280;49409;55.708;37.522;2023-02-12T15:24:39;99724.56;;;0.41;46.79
63285;BME280;49409;55.708;37.522;2023-02-12T15:27:05;99716.22;;;0.46;46.60
63285;BME280;49409;55.708;37.522;2023-02-12T15:29:32;99710.81;;;0.34;46.98
63285;BME280;49409;55.708;37.522;2023-02-12T15:32:02;99714.41;;;0.38;46.93